createdAt,value
2022-11-28T00:03:13.159Z,100548.03
2022-11-28T00:09:00.543Z,100550.34
2022-11-28T00:14:47.339Z,100536.13
2022-11-28T00:20:37.272Z,100536.78
2022-11-28T00:26:33.435Z,100549.56
2022-11-28T00:32:21.512Z,100545.19
2022-11-28T00:38:08.255Z,100539.09
2022-11-28T00:43:55.499Z,100542.53
2022-11-28T00:49:43.656Z,100533.28
2022-11-28T00:55:33.168Z,100512.78
2022-11-28T01:01:23.547Z,100509.56
2022-11-28T01:07:10.566Z,100504.63
2022-11-28T01:12:57.503Z,100491.44
2022-11-28T01:18:44.413Z,100492.25
2022-11-28T01:24:31.056Z,100490.63
2022-11-28T01:30:18.462Z,100482.78
2022-11-28T01:36:06.049Z,100484.38
2022-11-28T01:41:54.960Z,100484.38
2022-11-28T01:47:43.057Z,100483.94
2022-11-28T01:53:33.139Z,100458.34
2022-11-28T01:59:23.864Z,100454.94
2022-11-28T02:05:10.742Z,100455.22
2022-11-28T02:11:12.625Z,100454.75
2022-11-28T02:16:59.191Z,100442.84
2022-11-28T02:22:52.074Z,100456.06
2022-11-28T02:28:57.580Z,100465.59
2022-11-28T02:34:55.436Z,100459.22
2022-11-28T02:41:16.200Z,100450.25
2022-11-28T02:47:23.614Z,100440.75
2022-11-28T02:53:14.762Z,100429.75
2022-11-28T02:59:04.891Z,100414.47
2022-11-28T03:04:57.459Z,100416.63
2022-11-28T03:11:13.152Z,100422.50
2022-11-28T03:17:15.193Z,100426.16
2022-11-28T03:23:14.230Z,100438.84
2022-11-28T03:29:11.136Z,100437.53
2022-11-28T03:35:04.718Z,100433.00
2022-11-28T03:40:55.754Z,100446.81
2022-11-28T03:46:47.002Z,100448.66
2022-11-28T03:52:40.465Z,100471.59
2022-11-28T03:58:36.598Z,100464.16
2022-11-28T04:04:33.586Z,100474.44
2022-11-28T04:10:44.704Z,100462.75
2022-11-28T04:16:39.287Z,100460.75
2022-11-28T04:22:32.818Z,100450.41
2022-11-28T04:28:24.178Z,100450.34
2022-11-28T04:34:15.861Z,100452.44
2022-11-28T04:40:02.871Z,100450.34
2022-11-28T04:45:53.882Z,100442.44
2022-11-28T04:51:53.458Z,100441.97
2022-11-28T04:57:43.972Z,100455.22
2022-11-28T05:03:42.303Z,100453.94
2022-11-28T05:09:29.464Z,100454.75
2022-11-28T05:15:19.382Z,100448.50
2022-11-28T05:21:09.283Z,100453.25
2022-11-28T05:26:55.862Z,100444.25
2022-11-28T05:32:42.636Z,100459.56
2022-11-28T05:38:29.286Z,100459.56
2022-11-28T05:44:15.875Z,100465.38
2022-11-28T05:50:02.732Z,100472.75
2022-11-28T05:55:49.386Z,100471.69
2022-11-28T06:01:36.736Z,100467.97
2022-11-28T06:07:23.549Z,100474.84
2022-11-28T06:13:10.281Z,100483.28
2022-11-28T06:19:01.713Z,100481.69
2022-11-28T06:24:51.024Z,100465.88
2022-11-28T06:30:37.794Z,100474.06
2022-11-28T06:36:26.474Z,100464.31
2022-11-28T06:42:16.141Z,100455.84
2022-11-28T06:48:03.004Z,100459.19
2022-11-28T06:53:50.173Z,100473.69
2022-11-28T06:59:37.029Z,100489.50
2022-11-28T07:05:27.595Z,100488.78
2022-11-28T07:11:25.988Z,100495.13
2022-11-28T07:17:15.426Z,100499.66
2022-11-28T07:23:02.130Z,100495.94
2022-11-28T07:28:49.629Z,100499.59
2022-11-28T07:34:36.665Z,100495.94
2022-11-28T07:40:23.378Z,100492.50
2022-11-28T07:46:13.692Z,100486.16
2022-11-28T07:52:01.548Z,100490.13
2022-11-28T07:57:48.521Z,100500.09
2022-11-28T08:03:37.180Z,100498.56
2022-11-28T08:09:27.060Z,100513.09
2022-11-28T08:15:14.084Z,100499.63
2022-11-28T08:21:06.282Z,100505.47
2022-11-28T08:26:53.079Z,100499.38
2022-11-28T08:32:40.454Z,100505.44
2022-11-28T08:38:27.167Z,100512.09
2022-11-28T08:44:14.025Z,100508.63
2022-11-28T08:50:01.542Z,100510.47
2022-11-28T08:55:48.520Z,100508.66
2022-11-28T09:01:36.568Z,100514.19
2022-11-28T09:07:23.456Z,100504.94
2022-11-28T09:13:14.073Z,100511.19
2022-11-28T09:19:03.213Z,100506.81
2022-11-28T09:24:49.966Z,100507.44
2022-11-28T09:30:36.797Z,100502.50
2022-11-28T09:36:24.504Z,100490.81
2022-11-28T09:42:28.831Z,100493.47
2022-11-28T09:48:30.625Z,100498.06
2022-11-28T09:54:19.633Z,100496.75
2022-11-28T10:00:18.993Z,100484.28
2022-11-28T10:06:15.120Z,100478.78
2022-11-28T10:12:10.382Z,100484.63
2022-11-28T10:18:30.335Z,100497.00
2022-11-28T10:24:19.551Z,100496.13
2022-11-28T10:30:12.908Z,100489.94
2022-11-28T10:36:02.032Z,100488.91
2022-11-28T10:42:15.118Z,100496.09
2022-11-28T10:48:38.118Z,100497.75
2022-11-28T10:54:38.042Z,100491.66
2022-11-28T11:00:37.710Z,100493.94
2022-11-28T11:06:36.132Z,100495.53
2022-11-28T11:12:34.476Z,100485.53
2022-11-28T11:19:04.925Z,100493.13
2022-11-28T11:25:21.628Z,100491.50
2022-11-28T11:31:30.036Z,100475.94
2022-11-28T11:37:22.120Z,100485.88
2022-11-28T11:43:36.578Z,100481.09
2022-11-28T11:49:36.759Z,100478.69
2022-11-28T11:56:04.908Z,100475.47
2022-11-28T12:01:58.772Z,100477.97
2022-11-28T12:08:20.195Z,100483.53
2022-11-28T12:14:16.247Z,100480.88
2022-11-28T12:28:04.079Z,100490.25
2022-11-28T12:34:11.092Z,100504.59
2022-11-28T12:40:27.071Z,100502.59
2022-11-28T12:46:35.916Z,100506.81
2022-11-28T12:52:38.041Z,100520.00
2022-11-28T12:58:54.536Z,100523.66
2022-11-28T13:05:05.668Z,100533.13
2022-11-28T13:11:14.486Z,100527.84
2022-11-28T13:17:30.041Z,100535.56
2022-11-28T13:23:25.187Z,100533.78
2022-11-28T13:29:40.155Z,100549.47
2022-11-28T13:35:28.614Z,100553.00
2022-11-28T13:42:05.952Z,100552.16
2022-11-28T13:47:36.920Z,100553.44
2022-11-28T13:53:25.438Z,100557.06
2022-11-28T13:59:19.400Z,100563.03
2022-11-28T14:05:26.035Z,100564.16
2022-11-28T14:11:27.440Z,100578.91
2022-11-28T14:17:20.814Z,100575.81
2022-11-28T14:23:23.231Z,100580.59
2022-11-28T14:29:36.492Z,100572.72
2022-11-28T14:35:41.850Z,100580.25
2022-11-28T14:41:29.737Z,100586.63
2022-11-28T14:47:22.560Z,100597.91
2022-11-28T14:53:35.110Z,100598.53
2022-11-28T14:59:27.542Z,100609.31
2022-11-28T15:05:20.873Z,100604.63
2022-11-28T15:11:32.708Z,100610.03
2022-11-28T15:17:25.823Z,100618.84
2022-11-28T15:23:28.884Z,100627.66
2022-11-28T15:29:25.323Z,100637.28
2022-11-28T15:35:19.864Z,100632.16
2022-11-28T15:41:07.529Z,100648.06
2022-11-28T15:46:56.046Z,100659.97
2022-11-28T15:53:03.782Z,100665.81
2022-11-28T15:58:51.909Z,100656.13
2022-11-28T16:04:46.537Z,100676.97
2022-11-28T16:10:37.307Z,100688.69
2022-11-28T16:16:36.808Z,100686.06
2022-11-28T16:22:30.267Z,100700.72
2022-11-28T16:36:33.992Z,100701.91
2022-11-28T16:42:21.163Z,100700.16
2022-11-28T16:48:13.751Z,100716.06
2022-11-28T16:54:28.006Z,100732.91
2022-11-28T17:00:15.154Z,100715.28
2022-11-28T17:06:02.232Z,100712.22
2022-11-28T17:12:12.103Z,100736.72
2022-11-28T17:18:00.625Z,100743.53
2022-11-28T17:23:50.401Z,100743.63
2022-11-28T17:29:40.843Z,100758.72
2022-11-28T17:35:44.898Z,100765.56
2022-11-28T17:41:34.741Z,100771.63
2022-11-28T17:47:29.684Z,100788.63
2022-11-28T17:53:20.185Z,100786.97
2022-11-28T17:59:07.286Z,100803.88
2022-11-28T18:04:57.596Z,100806.56
2022-11-28T18:10:44.795Z,100814.75
2022-11-28T18:16:33.765Z,100817.69
2022-11-28T18:22:23.181Z,100815.00
2022-11-28T18:28:18.476Z,100819.50
2022-11-28T18:34:08.097Z,100835.38
2022-11-28T18:40:03.112Z,100846.75
2022-11-28T18:46:02.440Z,100865.03
2022-11-28T18:51:56.309Z,100851.81
2022-11-28T18:57:43.538Z,100866.63
2022-11-28T19:03:31.706Z,100868.72
2022-11-28T19:09:22.649Z,100891.75
2022-11-28T19:15:11.920Z,100892.25
2022-11-28T19:20:59.168Z,100897.84
2022-11-28T19:26:49.388Z,100906.84
2022-11-28T19:32:39.172Z,100904.72
2022-11-28T19:38:28.671Z,100913.44
2022-11-28T19:44:18.770Z,100908.66
2022-11-28T19:50:06.965Z,100919.47
2022-11-28T19:55:54.390Z,100929.75
2022-11-28T20:01:41.488Z,100946.13
2022-11-28T20:07:28.682Z,100952.09
2022-11-28T20:13:15.488Z,100950.06
2022-11-28T20:19:03.334Z,100962.06
2022-11-28T20:24:54.002Z,100944.84
2022-11-28T20:31:36.088Z,100969.91
2022-11-28T20:37:43.859Z,100979.66
2022-11-28T20:43:47.432Z,100979.94
2022-11-28T20:50:03.890Z,100987.28
2022-11-28T20:55:52.528Z,100997.78
2022-11-28T21:01:51.362Z,101003.22
2022-11-28T21:07:40.899Z,100995.28
2022-11-28T21:13:38.400Z,101012.66
2022-11-28T21:19:25.591Z,101012.72
2022-11-28T21:25:32.772Z,101035.84
2022-11-28T21:38:32.911Z,101044.88
2022-11-28T21:44:25.243Z,101045.53
2022-11-28T21:50:19.793Z,101051.69
2022-11-28T21:57:46.006Z,101050.47
2022-11-28T22:04:05.827Z,101058.59
2022-11-28T22:09:56.245Z,101057.56
2022-11-28T22:16:38.118Z,101059.41
2022-11-28T22:23:00.130Z,101069.88
2022-11-28T22:28:53.532Z,101064.78
2022-11-28T22:35:14.145Z,101066.69
2022-11-28T22:41:28.954Z,101068.78
2022-11-28T22:47:50.110Z,101059.75
2022-11-28T23:01:23.314Z,101085.69
2022-11-28T23:07:10.296Z,101102.69
2022-11-28T23:12:59.766Z,101108.59
2022-11-28T23:18:49.351Z,101117.16
2022-11-28T23:24:39.538Z,101119.13
2022-11-28T23:30:26.449Z,101128.69
2022-11-28T23:36:17.627Z,101134.47
2022-11-28T23:42:04.927Z,101136.56
2022-11-28T23:47:53.621Z,101136.31
2022-11-28T23:53:43.835Z,101153.78
2022-11-28T23:59:32.842Z,101150.06
